createdAt,value
2024-03-06T00:02:23.609Z,81.76
2024-03-06T00:04:50.639Z,81.74
2024-03-06T00:07:17.538Z,81.58
2024-03-06T00:09:44.433Z,82.31
2024-03-06T00:12:11.173Z,82.23
2024-03-06T00:14:38.209Z,82.34
2024-03-06T00:17:08.724Z,81.95
2024-03-06T00:19:35.929Z,81.87
2024-03-06T00:22:03.803Z,82.17
2024-03-06T00:24:30.850Z,82.18
2024-03-06T00:26:57.776Z,82.12
2024-03-06T00:29:24.590Z,82.03
2024-03-06T00:31:51.827Z,81.52
2024-03-06T00:34:18.626Z,81.44
2024-03-06T00:36:45.316Z,81.83
2024-03-06T00:39:12.349Z,81.99
2024-03-06T00:41:39.108Z,81.70
2024-03-06T00:44:07.071Z,81.91
2024-03-06T00:46:33.936Z,82.09
2024-03-06T00:49:00.715Z,81.98
2024-03-06T00:51:36.942Z,81.89
2024-03-06T00:54:08.782Z,81.86
2024-03-06T00:56:41.060Z,81.98
2024-03-06T00:59:08.021Z,81.86
2024-03-06T01:01:35.103Z,82.98
2024-03-06T01:04:01.930Z,82.68
2024-03-06T01:06:28.713Z,82.92
2024-03-06T01:08:55.908Z,82.82
2024-03-06T01:11:22.791Z,82.59
2024-03-06T01:13:50.453Z,82.79
2024-03-06T01:16:17.318Z,82.24
2024-03-06T01:18:44.146Z,82.45
2024-03-06T01:21:11.238Z,83.35
2024-03-06T01:23:38.194Z,83.45
2024-03-06T01:26:05.164Z,82.57
2024-03-06T01:28:32.273Z,82.87
2024-03-06T01:31:00.198Z,83.83
2024-03-06T01:33:27.837Z,83.81
2024-03-06T01:35:54.796Z,83.64
2024-03-06T01:38:21.545Z,83.00
2024-03-06T01:40:48.285Z,83.01
2024-03-06T01:43:23.585Z,82.63
2024-03-06T01:45:50.952Z,82.69
2024-03-06T01:48:18.724Z,82.58
2024-03-06T01:50:45.845Z,81.84
2024-03-06T01:53:14.463Z,82.10
2024-03-06T01:55:41.828Z,82.92
2024-03-06T01:58:09.061Z,83.19
2024-03-06T02:00:36.975Z,83.78
2024-03-06T02:03:03.794Z,84.16
2024-03-06T02:05:32.292Z,84.14
2024-03-06T02:08:00.609Z,84.04
2024-03-06T02:10:28.751Z,84.60
2024-03-06T02:12:56.334Z,83.97
2024-03-06T02:15:23.522Z,84.23
2024-03-06T02:17:50.749Z,84.28
2024-03-06T02:20:17.658Z,83.92
2024-03-06T02:22:44.544Z,84.17
2024-03-06T02:25:12.974Z,84.26
2024-03-06T02:27:39.678Z,84.43
2024-03-06T02:30:07.394Z,84.85
2024-03-06T02:32:34.204Z,85.84
2024-03-06T02:35:03.865Z,86.06
2024-03-06T02:37:30.735Z,86.05
2024-03-06T02:39:57.552Z,85.89
2024-03-06T02:42:24.245Z,85.97
2024-03-06T02:44:50.915Z,86.03
2024-03-06T02:47:17.646Z,85.51
2024-03-06T02:49:44.759Z,85.61
2024-03-06T02:52:11.566Z,85.34
2024-03-06T02:54:38.244Z,84.96
2024-03-06T02:57:04.953Z,84.95
2024-03-06T02:59:31.609Z,84.12
2024-03-06T03:01:58.344Z,83.66
2024-03-06T03:04:25.055Z,83.56
2024-03-06T03:06:52.192Z,83.14
2024-03-06T03:09:18.989Z,82.46
2024-03-06T03:11:45.738Z,82.14
2024-03-06T03:14:13.147Z,82.45
2024-03-06T03:16:39.965Z,82.74
2024-03-06T03:19:06.698Z,83.73
2024-03-06T03:21:33.577Z,85.78
2024-03-06T03:24:00.397Z,86.67
2024-03-06T03:26:27.171Z,88.02
2024-03-06T03:28:53.924Z,89.73
2024-03-06T03:31:20.682Z,90.63
2024-03-06T03:33:47.442Z,90.19
2024-03-06T03:36:14.138Z,89.56
2024-03-06T03:38:43.846Z,89.18
2024-03-06T03:41:14.869Z,89.97
2024-03-06T03:43:42.129Z,91.33
2024-03-06T03:46:10.213Z,92.17
2024-03-06T03:48:38.490Z,92.33
2024-03-06T03:51:06.824Z,92.35
2024-03-06T03:53:34.698Z,91.52
2024-03-06T03:56:02.497Z,90.85
2024-03-06T03:58:29.286Z,90.38
2024-03-06T04:00:57.089Z,90.85
2024-03-06T04:03:25.290Z,90.51
2024-03-06T04:05:52.841Z,89.99
2024-03-06T04:08:19.716Z,88.50
2024-03-06T04:10:46.656Z,87.62
2024-03-06T04:13:14.189Z,88.15
2024-03-06T04:15:41.116Z,88.90
2024-03-06T04:18:08.043Z,89.82
2024-03-06T04:20:35.328Z,89.07
2024-03-06T04:23:02.225Z,86.78
2024-03-06T04:25:29.095Z,86.16
2024-03-06T04:27:56.044Z,86.64
2024-03-06T04:30:22.756Z,87.02
2024-03-06T04:32:49.562Z,87.03
2024-03-06T04:35:17.228Z,86.82
2024-03-06T04:37:45.592Z,88.34
2024-03-06T04:40:13.045Z,89.52
2024-03-06T04:42:39.827Z,87.76
2024-03-06T04:45:17.224Z,92.87
2024-03-06T04:47:44.554Z,94.13
2024-03-06T04:50:12.439Z,94.55
2024-03-06T04:52:39.754Z,92.73
2024-03-06T04:55:07.792Z,91.30
2024-03-06T04:57:35.880Z,88.58
2024-03-06T05:00:07.166Z,88.08
2024-03-06T06:00:12.768Z,89.17
2024-03-06T06:02:39.590Z,88.14
2024-03-06T06:05:22.022Z,88.18
2024-03-06T06:07:51.285Z,87.68
2024-03-06T06:10:21.287Z,87.94
2024-03-06T06:12:49.665Z,89.02
2024-03-06T06:15:16.574Z,90.58
2024-03-06T06:17:46.249Z,92.13
2024-03-06T06:20:17.051Z,92.92
2024-03-06T06:22:44.832Z,93.58
2024-03-06T06:25:11.960Z,93.84
2024-03-06T06:27:39.779Z,93.85
2024-03-06T06:30:08.374Z,93.42
2024-03-06T06:32:37.184Z,92.30
2024-03-06T06:35:04.451Z,92.21
2024-03-06T06:37:31.313Z,92.64
2024-03-06T06:39:58.001Z,93.38
2024-03-06T06:42:26.015Z,93.69
2024-03-06T06:44:52.681Z,94.59
2024-03-06T06:47:19.466Z,94.35
2024-03-06T06:49:46.184Z,93.72
2024-03-06T06:52:12.975Z,94.72
2024-03-06T06:54:39.768Z,95.27
2024-03-06T06:57:06.499Z,95.79
2024-03-06T06:59:33.341Z,95.75
2024-03-06T07:02:00.195Z,96.34
2024-03-06T07:04:27.004Z,97.20
2024-03-06T07:06:53.673Z,96.27
2024-03-06T07:09:20.956Z,96.09
2024-03-06T07:11:48.033Z,96.13
2024-03-06T07:14:15.181Z,95.74
2024-03-06T07:16:45.635Z,94.90
2024-03-06T07:19:12.649Z,95.17
2024-03-06T07:21:39.496Z,95.82
2024-03-06T07:24:06.755Z,97.23
2024-03-06T07:26:35.119Z,97.67
2024-03-06T07:29:02.544Z,97.44
2024-03-06T07:31:29.546Z,97.78
2024-03-06T07:33:56.651Z,97.87
2024-03-06T07:36:23.469Z,97.52
2024-03-06T07:38:50.325Z,96.79
2024-03-06T07:41:17.244Z,96.82
2024-03-06T07:43:44.245Z,97.14
2024-03-06T07:46:11.722Z,96.47
2024-03-06T07:48:39.825Z,95.85
2024-03-06T07:51:06.822Z,95.38
2024-03-06T07:53:33.653Z,95.16
2024-03-06T07:56:00.521Z,94.67
2024-03-06T07:58:27.280Z,94.52
2024-03-06T08:00:57.760Z,94.50
2024-03-06T08:03:25.889Z,94.11
2024-03-06T08:05:56.492Z,93.34
2024-03-06T08:08:23.580Z,93.54
2024-03-06T08:10:50.620Z,93.00
2024-03-06T08:13:17.735Z,92.58
2024-03-06T08:15:46.221Z,92.17
2024-03-06T08:18:14.592Z,91.51
2024-03-06T08:20:42.353Z,90.33
2024-03-06T08:23:11.177Z,90.30
2024-03-06T08:25:38.929Z,89.97
2024-03-06T08:28:06.831Z,90.24
2024-03-06T08:30:34.282Z,88.61
2024-03-06T08:33:02.015Z,88.21
2024-03-06T08:35:29.132Z,88.49
2024-03-06T08:37:55.947Z,88.08
2024-03-06T08:40:24.516Z,87.46
2024-03-06T08:42:51.520Z,87.22
2024-03-06T08:45:19.179Z,86.11
2024-03-06T08:47:46.906Z,86.38
2024-03-06T08:50:14.531Z,87.07
2024-03-06T08:52:42.559Z,87.50
2024-03-06T08:55:10.131Z,87.85
2024-03-06T08:57:37.150Z,87.50
2024-03-06T09:00:05.743Z,88.61
2024-03-06T09:02:32.557Z,89.01
2024-03-06T09:04:59.423Z,89.20
2024-03-06T09:07:26.171Z,89.15
2024-03-06T09:09:53.906Z,87.69
2024-03-06T09:12:20.921Z,87.37
2024-03-06T09:14:47.717Z,87.93
2024-03-06T09:17:15.811Z,87.21
2024-03-06T09:19:55.041Z,87.93
2024-03-06T09:22:29.862Z,87.89
2024-03-06T09:24:57.804Z,86.57
2024-03-06T09:27:24.580Z,86.74
2024-03-06T09:29:51.356Z,85.83
2024-03-06T09:32:20.160Z,84.99
2024-03-06T09:34:47.234Z,85.92
2024-03-06T09:37:13.985Z,84.68
2024-03-06T09:39:40.758Z,82.86
2024-03-06T09:42:08.721Z,83.37
2024-03-06T09:44:35.809Z,82.63
2024-03-06T09:47:05.316Z,80.77
2024-03-06T09:49:32.414Z,80.49
2024-03-06T09:52:00.129Z,80.09
2024-03-06T09:54:29.791Z,80.42
2024-03-06T09:56:58.530Z,79.97
2024-03-06T09:59:25.286Z,80.11
2024-03-06T10:01:57.441Z,79.86
2024-03-06T10:04:28.751Z,79.05
2024-03-06T10:06:59.659Z,78.32
2024-03-06T10:09:28.142Z,78.31
2024-03-06T10:11:57.409Z,77.25
2024-03-06T10:14:24.834Z,77.55
2024-03-06T10:16:55.066Z,77.19
2024-03-06T10:19:23.350Z,77.93
2024-03-06T10:21:52.201Z,77.46
2024-03-06T10:24:26.936Z,76.41
2024-03-06T10:26:55.931Z,77.29
2024-03-06T10:29:23.803Z,76.58
2024-03-06T10:31:58.588Z,76.54
2024-03-06T10:34:26.985Z,77.13
2024-03-06T10:36:57.340Z,76.93
2024-03-06T10:39:25.410Z,77.41
2024-03-06T10:41:57.956Z,76.45
2024-03-06T10:44:27.112Z,76.14
2024-03-06T10:47:01.426Z,76.36
2024-03-06T10:49:29.462Z,75.95
2024-03-06T10:52:00.547Z,75.23
2024-03-06T10:54:33.381Z,75.62
2024-03-06T10:57:00.359Z,75.39
2024-03-06T10:59:29.011Z,74.85
2024-03-06T11:02:02.152Z,74.92
2024-03-06T11:04:35.266Z,75.03
2024-03-06T11:07:03.947Z,75.05
2024-03-06T11:09:39.165Z,75.75
2024-03-06T11:12:09.762Z,74.85
2024-03-06T11:14:41.304Z,73.98
2024-03-06T11:17:11.959Z,72.84
2024-03-06T11:20:00.886Z,73.65
2024-03-06T11:23:13.176Z,72.59
2024-03-06T11:25:48.893Z,71.68
2024-03-06T11:28:20.783Z,71.52
2024-03-06T11:30:50.175Z,71.06
2024-03-06T11:33:20.281Z,71.11
2024-03-06T11:36:22.442Z,71.05
2024-03-06T11:38:54.048Z,70.76
2024-03-06T11:41:25.424Z,70.92
2024-03-06T11:43:54.342Z,71.16
2024-03-06T11:46:22.507Z,71.36
2024-03-06T11:48:56.416Z,70.35
2024-03-06T11:51:24.463Z,70.11
2024-03-06T11:53:52.635Z,69.74
2024-03-06T11:56:20.782Z,68.39
2024-03-06T11:58:50.128Z,68.03
2024-03-06T12:01:19.968Z,68.06
2024-03-06T12:03:48.713Z,67.85
2024-03-06T12:06:18.211Z,67.41
2024-03-06T12:08:45.148Z,66.19
2024-03-06T12:11:12.092Z,64.92
2024-03-06T12:13:38.902Z,65.42
2024-03-06T12:16:07.829Z,65.15
2024-03-06T12:18:35.333Z,64.48
2024-03-06T12:21:04.245Z,64.17
2024-03-06T12:23:31.497Z,64.19
2024-03-06T12:26:06.462Z,64.51
2024-03-06T12:28:59.375Z,64.84
2024-03-06T12:31:26.214Z,64.92
2024-03-06T12:34:01.159Z,64.33
2024-03-06T12:36:31.171Z,64.20
2024-03-06T12:39:01.355Z,64.68
2024-03-06T12:41:29.098Z,64.37
2024-03-06T12:43:57.043Z,64.79
2024-03-06T12:46:25.096Z,64.43
2024-03-06T12:48:52.445Z,64.22
2024-03-06T12:51:19.365Z,64.08
2024-03-06T12:53:46.338Z,64.15
2024-03-06T12:56:13.291Z,64.36
2024-03-06T12:58:40.139Z,64.47
2024-03-06T13:01:07.026Z,63.90
2024-03-06T13:03:33.847Z,63.66
2024-03-06T13:06:00.966Z,63.85
2024-03-06T13:08:27.924Z,64.15
2024-03-06T13:10:55.230Z,63.83
2024-03-06T13:13:22.026Z,63.48
2024-03-06T13:15:49.812Z,63.52
2024-03-06T13:18:17.378Z,63.16
2024-03-06T13:20:45.293Z,63.88
2024-03-06T13:23:13.227Z,63.32
2024-03-06T13:25:40.168Z,63.39
2024-03-06T13:28:07.344Z,63.33
2024-03-06T13:30:34.024Z,62.65
2024-03-06T13:33:00.969Z,62.45
2024-03-06T13:35:27.984Z,62.98
2024-03-06T13:37:55.226Z,63.72
2024-03-06T13:40:21.861Z,63.25
2024-03-06T13:42:49.084Z,64.12
2024-03-06T13:45:16.061Z,64.05
2024-03-06T13:47:44.004Z,64.12
2024-03-06T13:50:12.816Z,63.91
2024-03-06T13:52:40.276Z,63.62
2024-03-06T13:55:08.075Z,63.41
2024-03-06T13:57:36.237Z,63.33
2024-03-06T14:00:13.505Z,63.28
2024-03-06T14:02:41.169Z,63.14
2024-03-06T14:05:08.676Z,62.77
2024-03-06T14:07:36.206Z,63.40
2024-03-06T14:10:06.088Z,63.90
2024-03-06T14:12:33.316Z,64.40
2024-03-06T14:15:00.006Z,64.38
2024-03-06T14:17:26.888Z,64.59
2024-03-06T14:19:53.679Z,64.67
2024-03-06T14:22:20.448Z,64.38
2024-03-06T14:24:47.192Z,64.03
2024-03-06T14:27:17.258Z,63.97
2024-03-06T14:29:44.513Z,64.09
2024-03-06T14:32:11.407Z,63.50
2024-03-06T14:34:38.230Z,63.54
2024-03-06T14:37:05.107Z,63.72
2024-03-06T14:39:31.850Z,63.18
2024-03-06T14:41:58.668Z,63.04
2024-03-06T14:44:25.426Z,62.47
2024-03-06T14:46:52.414Z,62.61
2024-03-06T14:49:19.200Z,62.20
2024-03-06T14:51:46.177Z,61.84
2024-03-06T14:54:12.974Z,61.90
2024-03-06T14:56:39.887Z,61.67
2024-03-06T14:59:06.679Z,61.09
2024-03-06T15:01:34.328Z,61.24
2024-03-06T15:04:01.057Z,61.12
2024-03-06T15:06:27.862Z,60.54
2024-03-06T15:08:54.622Z,60.20
2024-03-06T15:11:24.430Z,60.41
2024-03-06T15:13:51.782Z,59.90
2024-03-06T15:16:19.608Z,60.66
2024-03-06T15:18:46.415Z,60.78
2024-03-06T15:21:13.179Z,60.51
2024-03-06T15:23:40.249Z,60.86
2024-03-06T15:26:07.040Z,60.45
2024-03-06T15:28:33.812Z,60.68
2024-03-06T15:31:01.385Z,60.93
2024-03-06T15:33:28.275Z,60.70
2024-03-06T15:35:55.064Z,60.55
2024-03-06T15:38:21.936Z,60.58
2024-03-06T15:40:51.669Z,60.34
2024-03-06T15:43:18.764Z,60.19
2024-03-06T15:45:45.684Z,59.74
2024-03-06T15:48:15.163Z,60.08
2024-03-06T15:50:42.820Z,60.07
2024-03-06T15:53:10.033Z,59.91
2024-03-06T15:55:37.142Z,59.87
2024-03-06T15:58:04.719Z,60.17
2024-03-06T16:00:32.403Z,60.02
2024-03-06T16:02:59.595Z,60.43
2024-03-06T16:05:29.535Z,60.59
2024-03-06T16:08:05.357Z,60.33
2024-03-06T16:10:33.026Z,60.39
2024-03-06T16:12:59.733Z,60.55
2024-03-06T16:15:26.822Z,60.23
2024-03-06T16:17:53.788Z,60.20
2024-03-06T16:20:21.577Z,60.48
2024-03-06T16:22:48.456Z,60.45
2024-03-06T16:25:15.261Z,60.75
2024-03-06T16:27:41.985Z,60.58
2024-03-06T16:30:10.066Z,60.71
2024-03-06T16:32:37.042Z,60.87
2024-03-06T16:35:05.373Z,61.05
2024-03-06T16:37:32.243Z,61.08
2024-03-06T16:39:59.014Z,60.85
2024-03-06T16:42:25.761Z,60.72
2024-03-06T16:44:52.492Z,60.50
2024-03-06T16:47:19.294Z,60.58
2024-03-06T16:49:46.051Z,60.89
2024-03-06T16:52:14.615Z,61.08
2024-03-06T16:54:42.278Z,61.42
2024-03-06T16:57:12.099Z,61.38
2024-03-06T16:59:39.386Z,61.45
2024-03-06T17:02:06.603Z,61.45
2024-03-06T17:04:33.555Z,61.55
2024-03-06T17:07:02.461Z,61.52
2024-03-06T17:09:29.423Z,61.73
2024-03-06T17:11:56.269Z,61.79
2024-03-06T17:14:23.217Z,62.28
2024-03-06T17:16:49.914Z,62.12
2024-03-06T17:19:16.644Z,62.45
2024-03-06T17:21:43.383Z,62.72
2024-03-06T17:24:10.092Z,63.03
2024-03-06T17:26:39.650Z,63.47
2024-03-06T17:29:08.399Z,63.55
2024-03-06T17:31:38.514Z,64.05
2024-03-06T17:34:07.299Z,64.55
2024-03-06T17:36:37.388Z,64.44
2024-03-06T17:39:05.615Z,64.64
2024-03-06T17:41:32.329Z,65.16
2024-03-06T17:43:59.020Z,65.71
2024-03-06T17:46:27.145Z,66.30
2024-03-06T17:48:53.816Z,66.55
2024-03-06T17:51:22.915Z,66.29
2024-03-06T17:53:49.692Z,65.84
2024-03-06T17:56:16.524Z,65.84
2024-03-06T17:58:43.221Z,65.71
2024-03-06T18:01:09.916Z,65.62
2024-03-06T18:03:36.630Z,65.72
2024-03-06T18:06:03.373Z,65.92
2024-03-06T18:08:30.490Z,66.00
2024-03-06T18:10:57.148Z,66.13
2024-03-06T18:13:23.893Z,66.61
2024-03-06T18:15:53.222Z,66.98
2024-03-06T18:18:20.467Z,67.42
2024-03-06T18:20:47.276Z,67.51
2024-03-06T18:23:14.047Z,67.77
2024-03-06T18:25:41.302Z,68.11
2024-03-06T18:28:07.948Z,68.11
2024-03-06T18:30:34.658Z,68.15
2024-03-06T18:33:01.818Z,68.08
2024-03-06T18:35:28.777Z,67.97
2024-03-06T18:37:56.376Z,67.93
2024-03-06T18:40:24.789Z,67.80
2024-03-06T18:42:51.476Z,67.72
2024-03-06T18:45:19.393Z,67.89
2024-03-06T18:47:47.503Z,68.10
2024-03-06T18:50:16.681Z,68.20
2024-03-06T18:52:43.690Z,68.39
2024-03-06T18:55:11.631Z,68.70
2024-03-06T18:57:39.512Z,68.86
2024-03-06T19:00:07.681Z,68.83
2024-03-06T19:02:34.528Z,69.07
2024-03-06T19:05:01.257Z,69.11
2024-03-06T19:07:29.528Z,69.19
2024-03-06T19:09:56.892Z,69.15
2024-03-06T19:12:23.679Z,69.28
2024-03-06T19:14:50.518Z,69.26
2024-03-06T19:17:17.492Z,69.26
2024-03-06T19:19:44.262Z,69.37
2024-03-06T19:22:11.091Z,69.16
2024-03-06T19:24:40.986Z,69.66
2024-03-06T19:27:07.664Z,69.88
2024-03-06T19:29:34.438Z,70.64
2024-03-06T19:32:03.926Z,70.46
2024-03-06T19:34:31.833Z,70.21
2024-03-06T19:37:00.813Z,70.12
2024-03-06T19:39:27.546Z,70.12
2024-03-06T19:41:54.552Z,69.96
2024-03-06T19:44:21.649Z,69.77
2024-03-06T19:46:49.346Z,69.67
2024-03-06T19:49:16.019Z,69.34
2024-03-06T19:51:44.048Z,69.47
2024-03-06T19:54:10.721Z,69.42
2024-03-06T19:56:37.464Z,69.63
2024-03-06T19:59:05.257Z,69.56
2024-03-06T20:01:32.154Z,69.54
2024-03-06T20:03:58.926Z,70.18
2024-03-06T20:06:27.963Z,70.96
2024-03-06T20:08:55.207Z,71.56
2024-03-06T20:11:22.314Z,72.15
2024-03-06T20:13:49.127Z,73.04
2024-03-06T20:16:15.784Z,73.49
2024-03-06T20:18:42.587Z,74.35
2024-03-06T20:21:09.916Z,74.44
2024-03-06T20:23:36.675Z,74.64
2024-03-06T20:26:03.479Z,74.64
2024-03-06T20:28:30.151Z,75.21
2024-03-06T20:30:56.856Z,75.44
2024-03-06T20:33:24.680Z,75.48
2024-03-06T20:35:51.572Z,75.57
2024-03-06T20:38:19.862Z,75.83
2024-03-06T20:40:50.929Z,76.19
2024-03-06T20:43:17.668Z,76.25
2024-03-06T20:45:45.154Z,76.46
2024-03-06T20:48:12.137Z,76.71
2024-03-06T20:50:39.871Z,76.98
2024-03-06T20:53:06.682Z,77.02
2024-03-06T20:55:33.383Z,76.71
2024-03-06T20:58:00.046Z,76.54
2024-03-06T21:00:26.723Z,76.59
2024-03-06T21:02:53.488Z,76.52
2024-03-06T21:05:20.207Z,76.48
2024-03-06T21:07:47.101Z,76.28
2024-03-06T21:10:16.741Z,76.47
2024-03-06T21:12:48.536Z,76.59
2024-03-06T21:15:16.503Z,76.83
2024-03-06T21:17:44.220Z,76.92
2024-03-06T21:20:14.440Z,76.59
2024-03-06T21:22:45.892Z,76.74
2024-03-06T21:25:13.639Z,77.01
2024-03-06T21:27:41.066Z,76.62
2024-03-06T21:30:09.609Z,76.44
2024-03-06T21:32:37.521Z,76.22
2024-03-06T21:35:05.324Z,75.99
2024-03-06T21:37:32.978Z,75.71
2024-03-06T21:40:00.366Z,75.57
2024-03-06T21:42:27.379Z,75.64
2024-03-06T21:44:54.282Z,76.26
2024-03-06T21:47:22.460Z,77.16
2024-03-06T21:49:50.448Z,77.62
2024-03-06T21:52:17.975Z,78.83
2024-03-06T21:54:45.083Z,79.59
2024-03-06T21:57:16.565Z,81.09
2024-03-06T21:59:43.576Z,81.44
2024-03-06T22:02:12.174Z,81.61
2024-03-06T22:04:39.276Z,83.23
2024-03-06T22:07:06.010Z,85.22
2024-03-06T22:09:33.248Z,85.62
2024-03-06T22:12:02.057Z,86.03
2024-03-06T22:14:29.121Z,86.98
2024-03-06T22:16:55.891Z,87.19
2024-03-06T22:19:25.934Z,86.83
2024-03-06T22:21:52.703Z,86.43
2024-03-06T22:24:20.108Z,86.11
2024-03-06T22:26:46.916Z,86.65
2024-03-06T22:29:14.868Z,86.71
2024-03-06T22:31:44.696Z,86.50
2024-03-06T22:34:11.484Z,86.76
2024-03-06T22:36:38.984Z,87.25
2024-03-06T22:39:06.049Z,86.73
2024-03-06T22:41:32.811Z,86.70
2024-03-06T22:43:59.529Z,86.95
2024-03-06T22:46:26.353Z,87.07
2024-03-06T22:48:53.917Z,87.68
2024-03-06T22:51:20.778Z,87.46
2024-03-06T22:53:48.989Z,87.25
2024-03-06T22:56:16.142Z,86.96
2024-03-06T22:58:43.010Z,87.46
2024-03-06T23:01:09.734Z,87.06
2024-03-06T23:03:36.488Z,87.42
2024-03-06T23:06:03.740Z,87.57
2024-03-06T23:08:30.537Z,87.22
2024-03-06T23:10:59.541Z,87.23
2024-03-06T23:13:26.683Z,86.51
2024-03-06T23:15:53.880Z,86.23
2024-03-06T23:18:21.435Z,85.84
2024-03-06T23:20:50.179Z,86.10
2024-03-06T23:23:17.132Z,85.85
2024-03-06T23:25:43.945Z,85.84
2024-03-06T23:28:12.082Z,85.92
2024-03-06T23:30:39.011Z,86.36
2024-03-06T23:33:06.727Z,87.17
2024-03-06T23:35:33.695Z,87.81
2024-03-06T23:38:00.487Z,87.52
2024-03-06T23:40:30.482Z,87.31
2024-03-06T23:42:58.329Z,87.87
2024-03-06T23:45:25.340Z,87.25
2024-03-06T23:47:52.690Z,87.56
2024-03-06T23:50:21.466Z,87.78
2024-03-06T23:52:49.265Z,88.10
2024-03-06T23:55:16.741Z,87.64
2024-03-06T23:57:43.464Z,87.33
